LYBE/BEG METAR and TAF weather

Enter ICAO airport designator
Station Type Date Time Source
LYBE METAR 2018/12/19 10:00 UTC NOAA

LYBE 191000Z 10002KT 1800 BR BKN035 00/M01 Q1029 R12/1///95 TEMPO 1000


Station Type Date Time Source
LYBE Decoded METAR 2018/12/19 10:00 UTC NOAA

Beograd / Surcin, Serbia and Montenegro (LYBE) 44-49N 020-17E 99M
Dec 19, 2018 - 05:00 AM EST / 2018.12.19 1000 UTC
Wind: from the E (100 degrees) at 2 MPH (2 KT):0
Visibility: 1 mile(s):0
Sky conditions: mostly cloudy
Weather: mist
Temperature: 32 F (0 C)
Dew Point: 30 F (-1 C)
Relative Humidity: 92%
Pressure (altimeter): 30.39 in. Hg (1029 hPa)
ob: LYBE 191000Z 10002KT 1800 BR BKN035 00/M01 Q1029 R12/1///95 TEMPO 1000
cycle: 10

Station Type Date Time Source
LYBE TAF 2018/12/19 06:22 UTC NOAA

TAF COR LYBE 190500Z 1906/2006 20004KT 2000 BR BKN005 OVC030 TX01/1913Z TNM05/2006Z
TEMPO 1906/1910 0500 FZFG OVC002
BECMG 1910/1912 5000 BKN008 BKN030
BECMG 1919/1921 13010KT BKN030
BECMG 2003/2005 2000


Example: see airport list